Time,TemperatureF,DewpointF,PressureIn,WindDirection,WindDirectionDegrees,WindSpeedMPH,WindSpeedGustMPH,Humidity,HourlyPrecipIn,Conditions,Clouds,dailyrainin,SoftwareType,DateUTC
2013-01-02 00:02:00,8.0,3.0,-100.00,NNE,15,6.0,9.0,81,-99.99,,,-99.99,,2013-01-02 06:02:00,
2013-01-02 00:12:00,8.0,4.0,-100.00,North,10,6.0,11.0,80,-99.99,,,-99.99,,2013-01-02 06:12:00,
2013-01-02 00:22:00,9.0,3.0,-100.00,North,10,8.0,10.0,79,-99.99,,,-99.99,,2013-01-02 06:22:00,
2013-01-02 00:32:00,8.0,3.0,-100.00,North,10,5.0,9.0,79,-99.99,,,-99.99,,2013-01-02 06:32:00,
2013-01-02 00:42:00,8.0,3.0,-100.00,North,10,5.0,9.0,79,-99.99,,,-99.99,,2013-01-02 06:42:00,
2013-01-02 00:53:00,8.0,3.0,-100.00,North,10,4.0,6.0,79,-99.99,,,-99.99,,2013-01-02 06:53:00,
2013-01-02 01:02:00,8.0,3.0,-100.00,North,10,4.0,6.0,79,-99.99,,,-99.99,,2013-01-02 07:02:00,
2013-01-02 01:12:00,8.0,3.0,-100.00,NNE,15,4.0,6.0,79,-99.99,,,-99.99,,2013-01-02 07:12:00,
2013-01-02 01:22:00,8.0,2.0,-100.00,NNE,15,5.0,7.0,78,-99.99,,,-99.99,,2013-01-02 07:22:00,
2013-01-02 01:32:00,8.0,2.0,-100.00,NNE,15,5.0,7.0,78,-99.99,,,-99.99,,2013-01-02 07:32:00,
2013-01-02 01:42:00,8.0,2.0,-100.00,NNE,15,6.0,8.0,78,-99.99,,,-99.99,,2013-01-02 07:42:00,
2013-01-02 01:52:00,7.0,1.0,-100.00,NNE,15,5.0,6.0,78,-99.99,,,-99.99,,2013-01-02 07:52:00,
2013-01-02 02:02:00,7.0,1.0,-100.00,NNE,15,5.0,6.0,78,-99.99,,,-99.99,,2013-01-02 08:02:00,
2013-01-02 02:12:00,7.0,2.0,-100.00,NNE,15,6.0,8.0,79,-99.99,,,-99.99,,2013-01-02 08:12:00,
2013-01-02 02:22:00,7.0,2.0,-100.00,NNE,15,8.0,10.0,80,-99.99,,,-99.99,,2013-01-02 08:22:00,
2013-01-02 02:32:00,7.0,2.0,-100.00,North,10,5.0,8.0,80,-99.99,,,-99.99,,2013-01-02 08:32:00,
2013-01-02 02:42:00,7.0,2.0,-100.00,North,10,5.0,8.0,80,-99.99,,,-99.99,,2013-01-02 08:42:00,
2013-01-02 02:53:00,7.0,2.0,-100.00,North,10,5.0,8.0,80,-99.99,,,-99.99,,2013-01-02 08:53:00,
2013-01-02 03:02:00,7.0,2.0,-100.00,North,10,5.0,8.0,80,-99.99,,,-99.99,,2013-01-02 09:02:00,
2013-01-02 03:12:00,7.0,2.0,-100.00,NNE,15,6.0,7.0,80,-99.99,,,-99.99,,2013-01-02 09:12:00,
2013-01-02 03:22:00,7.0,2.0,-100.00,North,10,5.0,6.0,80,-99.99,,,-99.99,,2013-01-02 09:22:00,
2013-01-02 03:32:00,7.0,2.0,-100.00,North,10,5.0,6.0,80,-99.99,,,-99.99,,2013-01-02 09:32:00,
2013-01-02 03:43:00,7.0,2.0,-100.00,North,10,5.0,6.0,80,-99.99,,,-99.99,,2013-01-02 09:43:00,
2013-01-02 03:53:00,6.0,2.0,-100.00,NNE,20,2.0,4.0,80,-99.99,,,-99.99,,2013-01-02 09:53:00,
2013-01-02 04:02:00,6.0,2.0,-100.00,NNE,20,2.0,4.0,80,-99.99,,,-99.99,,2013-01-02 10:02:00,
2013-01-02 04:12:00,7.0,2.0,-100.00,NNE,15,5.0,7.0,80,-99.99,,,-99.99,,2013-01-02 10:12:00,
2013-01-02 04:22:00,6.0,2.0,-100.00,NNE,25,1.0,6.0,80,-99.99,,,-99.99,,2013-01-02 10:22:00,
2013-01-02 04:32:00,6.0,2.0,-100.00,NNE,20,2.0,5.0,80,-99.99,,,-99.99,,2013-01-02 10:32:00,
2013-01-02 04:42:00,6.0,2.0,-100.00,NNE,20,2.0,5.0,80,-99.99,,,-99.99,,2013-01-02 10:42:00,
2013-01-02 04:52:00,7.0,2.0,-100.00,NNE,20,1.0,4.0,80,-99.99,,,-99.99,,2013-01-02 10:52:00,
2013-01-02 05:02:00,7.0,2.0,-100.00,NNE,20,1.0,4.0,80,-99.99,,,-99.99,,2013-01-02 11:02:00,
2013-01-02 05:12:00,7.0,2.0,-100.00,NNE,25,1.0,4.0,79,-99.99,,,-99.99,,2013-01-02 11:12:00,
2013-01-02 05:22:00,7.0,2.0,-100.00,NNE,25,5.0,6.0,79,-99.99,,,-99.99,,2013-01-02 11:22:00,
2013-01-02 05:32:00,6.0,1.0,-100.00,NNE,20,6.0,7.0,79,-99.99,,,-99.99,,2013-01-02 11:32:00,
2013-01-02 05:42:00,6.0,1.0,-100.00,NNE,20,6.0,7.0,79,-99.99,,,-99.99,,2013-01-02 11:42:00,
2013-01-02 05:53:00,6.0,1.0,-100.00,NNE,20,6.0,7.0,79,-99.99,,,-99.99,,2013-01-02 11:53:00,
2013-01-02 06:02:00,6.0,1.0,-100.00,NNE,20,6.0,7.0,79,-99.99,,,-99.99,,2013-01-02 12:02:00,
2013-01-02 06:12:00,7.0,2.0,-100.00,NNE,20,6.0,7.0,78,-99.99,,,-99.99,,2013-01-02 12:12:00,
2013-01-02 06:22:00,7.0,2.0,-100.00,NNE,20,6.0,6.0,78,-99.99,,,-99.99,,2013-01-02 12:22:00,
2013-01-02 06:33:00,7.0,2.0,-100.00,NNE,20,6.0,6.0,78,-99.99,,,-99.99,,2013-01-02 12:33:00,
2013-01-02 06:42:00,7.0,2.0,-100.00,NNE,20,6.0,6.0,78,-99.99,,,-99.99,,2013-01-02 12:42:00,
2013-01-02 06:53:00,8.0,2.0,-100.00,NNE,20,6.0,9.0,77,-99.99,,,-99.99,,2013-01-02 12:53:00,
2013-01-02 07:02:00,8.0,2.0,-100.00,NNE,20,6.0,9.0,77,-99.99,,,-99.99,,2013-01-02 13:02:00,
2013-01-02 07:12:00,8.0,2.0,-100.00,NNE,20,7.0,8.0,76,-99.99,,,-99.99,,2013-01-02 13:12:00,
2013-01-02 07:22:00,7.0,1.0,-100.00,NNE,15,5.0,7.0,76,-99.99,,,-99.99,,2013-01-02 13:22:00,
2013-01-02 07:32:00,7.0,1.0,-100.00,NNE,15,5.0,7.0,76,-99.99,,,-99.99,,2013-01-02 13:32:00,
2013-01-02 07:43:00,8.0,2.0,-100.00,NNE,15,6.0,9.0,77,-99.99,,,-99.99,,2013-01-02 13:43:00,
2013-01-02 07:52:00,7.0,2.0,-100.00,North,10,4.0,6.0,77,-99.99,,,-99.99,,2013-01-02 13:52:00,
2013-01-02 08:02:00,7.0,2.0,-100.00,North,10,4.0,6.0,77,-99.99,,,-99.99,,2013-01-02 14:02:00,
2013-01-02 08:12:00,8.0,3.0,-100.00,NNE,15,4.0,6.0,78,-99.99,,,-99.99,,2013-01-02 14:12:00,
2013-01-02 08:22:00,9.0,3.0,-100.00,NNE,20,4.0,6.0,78,-99.99,,,-99.99,,2013-01-02 14:22:00,
2013-01-02 08:33:00,9.0,3.0,-100.00,NNE,20,4.0,6.0,78,-99.99,,,-99.99,,2013-01-02 14:33:00,
2013-01-02 08:43:00,10.0,4.0,-100.00,NNE,20,6.0,7.0,76,-99.99,,,-99.99,,2013-01-02 14:43:00,
2013-01-02 08:53:00,12.0,5.0,-100.00,NNE,15,6.0,9.0,75,-99.99,,,-99.99,,2013-01-02 14:53:00,
2013-01-02 09:03:00,12.0,5.0,-100.00,NNE,15,6.0,9.0,75,-99.99,,,-99.99,,2013-01-02 15:03:00,
2013-01-02 09:12:00,13.0,6.0,-100.00,North,10,5.0,6.0,75,-99.99,,,-99.99,,2013-01-02 15:12:00,
2013-01-02 09:22:00,14.0,7.0,-100.00,North,10,6.0,8.0,74,-99.99,,,-99.99,,2013-01-02 15:22:00,
2013-01-02 09:33:00,15.0,8.0,-100.00,North,10,4.0,9.0,73,-99.99,,,-99.99,,2013-01-02 15:33:00,
2013-01-02 09:43:00,15.0,8.0,-100.00,North,10,4.0,9.0,73,-99.99,,,-99.99,,2013-01-02 15:43:00,
2013-01-02 09:53:00,16.0,8.0,-100.00,North,10,9.0,11.0,72,-99.99,,,-99.99,,2013-01-02 15:53:00,
2013-01-02 10:03:00,16.0,8.0,-100.00,North,10,9.0,11.0,72,-99.99,,,-99.99,,2013-01-02 16:03:00,
2013-01-02 10:13:00,17.0,9.0,-100.00,North,10,9.0,11.0,71,-99.99,,,-99.99,,2013-01-02 16:13:00,
2013-01-02 10:22:00,17.0,9.0,-100.00,NNE,15,9.0,14.0,70,-99.99,,,-99.99,,2013-01-02 16:22:00,
2013-01-02 10:33:00,19.0,10.0,-100.00,North,10,11.0,15.0,69,-99.99,,,-99.99,,2013-01-02 16:33:00,
2013-01-02 10:43:00,19.0,10.0,-100.00,North,10,11.0,15.0,69,-99.99,,,-99.99,,2013-01-02 16:43:00,
2013-01-02 10:53:00,20.0,11.0,-100.00,NNE,15,11.0,17.0,65,-99.99,,,-99.99,,2013-01-02 16:53:00,
2013-01-02 11:03:00,20.0,11.0,-100.00,NNE,15,11.0,17.0,65,-99.99,,,-99.99,,2013-01-02 17:03:00,
2013-01-02 11:13:00,22.0,11.0,-100.00,NNE,15,11.0,19.0,63,-99.99,,,-99.99,,2013-01-02 17:13:00,
2013-01-02 11:23:00,23.0,11.0,-100.00,North,10,11.0,19.0,60,-99.99,,,-99.99,,2013-01-02 17:23:00,
2013-01-02 11:33:00,23.0,11.0,-100.00,North,10,11.0,19.0,60,-99.99,,,-99.99,,2013-01-02 17:33:00,
2013-01-02 11:43:00,24.0,11.0,-100.00,North,10,13.0,21.0,57,-99.99,,,-99.99,,2013-01-02 17:43:00,
2013-01-02 11:53:00,25.0,11.0,-100.00,North,10,12.0,18.0,54,-99.99,,,-99.99,,2013-01-02 17:53:00,
2013-01-02 12:03:00,25.0,11.0,-100.00,North,10,12.0,18.0,54,-99.99,,,-99.99,,2013-01-02 18:03:00,
2013-01-02 12:12:00,26.0,10.0,-100.00,North,10,14.0,20.0,52,-99.99,,,-99.99,,2013-01-02 18:12:00,
2013-01-02 12:22:00,26.0,10.0,-100.00,North,10,14.0,20.0,50,-99.99,,,-99.99,,2013-01-02 18:22:00,
2013-01-02 12:33:00,26.0,10.0,-100.00,North,10,14.0,20.0,50,-99.99,,,-99.99,,2013-01-02 18:33:00,
2013-01-02 12:43:00,27.0,11.0,-100.00,North,10,14.0,22.0,50,-99.99,,,-99.99,,2013-01-02 18:43:00,
2013-01-02 12:53:00,28.0,11.0,-100.00,North,10,11.0,20.0,49,-99.99,,,-99.99,,2013-01-02 18:53:00,
2013-01-02 13:03:00,28.0,11.0,-100.00,North,10,11.0,20.0,49,-99.99,,,-99.99,,2013-01-02 19:03:00,
2013-01-02 13:12:00,29.0,12.0,-100.00,North,10,14.0,21.0,48,-99.99,,,-99.99,,2013-01-02 19:12:00,
2013-01-02 13:23:00,29.0,12.0,-100.00,North,10,11.0,18.0,48,-99.99,,,-99.99,,2013-01-02 19:23:00,
2013-01-02 13:33:00,30.0,12.0,-100.00,NNE,15,14.0,19.0,47,-99.99,,,-99.99,,2013-01-02 19:33:00,
2013-01-02 13:43:00,30.0,12.0,-100.00,NNE,15,14.0,19.0,47,-99.99,,,-99.99,,2013-01-02 19:43:00,
2013-01-02 13:53:00,31.0,14.0,-100.00,NNE,15,12.0,21.0,48,-99.99,,,-99.99,,2013-01-02 19:53:00,
2013-01-02 14:03:00,31.0,14.0,-100.00,NNE,15,12.0,21.0,48,-99.99,,,-99.99,,2013-01-02 20:03:00,
2013-01-02 14:12:00,31.0,13.0,-100.00,North,10,13.0,21.0,48,-99.99,,,-99.99,,2013-01-02 20:12:00,
2013-01-02 14:23:00,31.0,14.0,-100.00,NNE,15,13.0,22.0,49,-99.99,,,-99.99,,2013-01-02 20:23:00,
2013-01-02 14:33:00,31.0,14.0,-100.00,NNE,15,13.0,22.0,49,-99.99,,,-99.99,,2013-01-02 20:33:00,
2013-01-02 14:42:00,31.0,15.0,-100.00,NNE,20,14.0,20.0,50,-99.99,,,-99.99,,2013-01-02 20:42:00,
2013-01-02 14:53:00,32.0,15.0,-100.00,NNE,15,14.0,18.0,50,-99.99,,,-99.99,,2013-01-02 20:53:00,
2013-01-02 15:03:00,32.0,15.0,-100.00,NNE,15,14.0,18.0,50,-99.99,,,-99.99,,2013-01-02 21:03:00,
2013-01-02 15:13:00,32.0,16.0,-100.00,NNE,15,12.0,18.0,51,-99.99,,,-99.99,,2013-01-02 21:13:00,
2013-01-02 15:22:00,33.0,17.0,-100.00,NNE,15,10.0,19.0,52,-99.99,,,-99.99,,2013-01-02 21:22:00,
2013-01-02 15:33:00,33.0,17.0,-100.00,NNE,15,10.0,19.0,52,-99.99,,,-99.99,,2013-01-02 21:33:00,
2013-01-02 15:43:00,32.0,17.0,-100.00,North,5,14.0,23.0,53,-99.99,,,-99.99,,2013-01-02 21:43:00,
2013-01-02 15:53:00,32.0,18.0,-100.00,North,5,14.0,21.0,55,-99.99,,,-99.99,,2013-01-02 21:53:00,
2013-01-02 16:03:00,32.0,18.0,-100.00,North,5,14.0,21.0,55,-99.99,,,-99.99,,2013-01-02 22:03:00,
2013-01-02 16:12:00,32.0,18.0,-100.00,NNE,15,14.0,21.0,56,-99.99,,,-99.99,,2013-01-02 22:12:00,
2013-01-02 16:22:00,31.0,18.0,-100.00,NNE,20,14.0,17.0,57,-99.99,,,-99.99,,2013-01-02 22:22:00,
2013-01-02 16:32:00,31.0,18.0,-100.00,NNE,20,14.0,17.0,57,-99.99,,,-99.99,,2013-01-02 22:32:00,
2013-01-02 16:42:00,31.0,18.0,-100.00,NNE,20,12.0,18.0,59,-99.99,,,-99.99,,2013-01-02 22:42:00,
2013-01-02 16:53:00,30.0,18.0,-100.00,NNE,20,10.0,17.0,61,-99.99,,,-99.99,,2013-01-02 22:53:00,
2013-01-02 17:03:00,30.0,18.0,-100.00,NNE,20,10.0,17.0,61,-99.99,,,-99.99,,2013-01-02 23:03:00,
2013-01-02 17:12:00,29.0,18.0,-100.00,NNE,20,9.0,13.0,64,-99.99,,,-99.99,,2013-01-02 23:12:00,
2013-01-02 17:23:00,28.0,18.0,-100.00,NNE,15,11.0,14.0,66,-99.99,,,-99.99,,2013-01-02 23:23:00,
2013-01-02 17:33:00,28.0,18.0,-100.00,NNE,15,11.0,14.0,66,-99.99,,,-99.99,,2013-01-02 23:33:00,
2013-01-02 17:42:00,27.0,18.0,-100.00,NNE,15,10.0,14.0,68,-99.99,,,-99.99,,2013-01-02 23:42:00,
2013-01-02 17:53:00,27.0,18.0,-100.00,NNE,15,9.0,13.0,70,-99.99,,,-99.99,,2013-01-02 23:53:00,
2013-01-02 18:02:00,27.0,18.0,-100.00,NNE,15,9.0,13.0,70,-99.99,,,-99.99,,2013-01-03 00:02:00,
2013-01-02 18:12:00,26.0,18.0,-100.00,North,10,6.0,11.0,71,-99.99,,,-99.99,,2013-01-03 00:12:00,
2013-01-02 18:22:00,25.0,18.0,-100.00,North,10,9.0,11.0,73,-99.99,,,-99.99,,2013-01-03 00:22:00,
2013-01-02 18:38:00,25.0,18.0,-100.00,North,10,9.0,11.0,73,-99.99,,,-99.99,,2013-01-03 00:38:00,
2013-01-02 18:53:00,23.0,16.0,-100.00,North,10,6.0,12.0,74,-99.99,,,-99.99,,2013-01-03 00:53:00,
2013-01-02 19:02:00,23.0,16.0,-100.00,North,10,6.0,12.0,74,-99.99,,,-99.99,,2013-01-03 01:02:00,
2013-01-02 19:12:00,22.0,16.0,-100.00,NNE,15,9.0,12.0,76,-99.99,,,-99.99,,2013-01-03 01:12:00,
2013-01-02 19:22:00,21.0,15.0,-100.00,NNE,15,11.0,15.0,77,-99.99,,,-99.99,,2013-01-03 01:22:00,
2013-01-02 19:32:00,21.0,15.0,-100.00,NNE,15,11.0,15.0,77,-99.99,,,-99.99,,2013-01-03 01:32:00,
2013-01-02 19:42:00,21.0,15.0,-100.00,North,10,11.0,19.0,77,-99.99,,,-99.99,,2013-01-03 01:42:00,
2013-01-02 19:53:00,21.0,15.0,-100.00,North,10,9.0,14.0,77,-99.99,,,-99.99,,2013-01-03 01:53:00,
2013-01-02 20:02:00,21.0,15.0,-100.00,North,10,9.0,14.0,77,-99.99,,,-99.99,,2013-01-03 02:02:00,
2013-01-02 20:12:00,20.0,15.0,-100.00,North,10,7.0,11.0,78,-99.99,,,-99.99,,2013-01-03 02:12:00,
2013-01-02 20:22:00,20.0,14.0,-100.00,North,10,6.0,9.0,79,-99.99,,,-99.99,,2013-01-03 02:22:00,
2013-01-02 20:33:00,20.0,14.0,-100.00,North,10,6.0,9.0,79,-99.99,,,-99.99,,2013-01-03 02:33:00,
2013-01-02 20:42:00,20.0,14.0,-100.00,North,10,6.0,9.0,79,-99.99,,,-99.99,,2013-01-03 02:42:00,
2013-01-02 21:02:00,20.0,15.0,-100.00,North,10,6.0,10.0,80,-99.99,,,-99.99,,2013-01-03 03:02:00,
2013-01-02 21:12:00,21.0,15.0,-100.00,North,10,7.0,10.0,80,-99.99,,,-99.99,,2013-01-03 03:12:00,
2013-01-02 21:22:00,21.0,16.0,-100.00,North,10,9.0,13.0,79,-99.99,,,-99.99,,2013-01-03 03:22:00,
2013-01-02 21:46:00,22.0,16.0,-100.00,North,10,11.0,13.0,77,-99.99,,,-99.99,,2013-01-03 03:46:00,
2013-01-02 21:53:00,22.0,16.0,-100.00,NNE,15,9.0,13.0,76,-99.99,,,-99.99,,2013-01-03 03:53:00,
2013-01-02 22:02:00,22.0,16.0,-100.00,NNE,15,9.0,13.0,76,-99.99,,,-99.99,,2013-01-03 04:02:00,
2013-01-02 22:12:00,23.0,16.0,-100.00,North,10,9.0,11.0,76,-99.99,,,-99.99,,2013-01-03 04:12:00,
2013-01-02 22:22:00,23.0,16.0,-100.00,NNE,15,9.0,14.0,75,-99.99,,,-99.99,,2013-01-03 04:22:00,
2013-01-02 22:32:00,24.0,17.0,-100.00,North,10,10.0,14.0,75,-99.99,,,-99.99,,2013-01-03 04:32:00,
2013-01-02 22:42:00,24.0,17.0,-100.00,North,10,10.0,14.0,75,-99.99,,,-99.99,,2013-01-03 04:42:00,
2013-01-02 22:52:00,24.0,17.0,-100.00,North,10,11.0,15.0,75,-99.99,,,-99.99,,2013-01-03 04:52:00,
2013-01-02 23:03:00,24.0,17.0,-100.00,North,10,11.0,15.0,75,-99.99,,,-99.99,,2013-01-03 05:03:00,
2013-01-02 23:12:00,24.0,17.0,-100.00,North,10,9.0,19.0,75,-99.99,,,-99.99,,2013-01-03 05:12:00,
2013-01-02 23:22:00,24.0,18.0,-100.00,North,10,11.0,16.0,75,-99.99,,,-99.99,,2013-01-03 05:22:00,
2013-01-02 23:33:00,25.0,18.0,-100.00,North,10,11.0,14.0,76,-99.99,,,-99.99,,2013-01-03 05:33:00,
2013-01-02 23:42:00,25.0,18.0,-100.00,North,10,11.0,14.0,76,-99.99,,,-99.99,,2013-01-03 05:42:00,
2013-01-02 23:53:00,25.0,18.0,-100.00,NNE,15,11.0,16.0,76,-99.99,,,-99.99,,2013-01-03 05:53:00,